sensor_id;sensor_type;location;lat;lon;timestamp;P1;durP1;ratioP1;P2;durP2;ratioP2
22697;SDS011;11516;51.612;7.510;2023-06-14T00:01:00;5.53;;;3.80;;
22697;SDS011;11516;51.612;7.510;2023-06-14T00:03:27;4.65;;;3.47;;
22697;SDS011;11516;51.612;7.510;2023-06-14T00:05:54;4.15;;;3.42;;
22697;SDS011;11516;51.612;7.510;2023-06-14T00:08:19;5.38;;;3.30;;
22697;SDS011;11516;51.612;7.510;2023-06-14T00:10:46;5.22;;;3.65;;
22697;SDS011;11516;51.612;7.510;2023-06-14T00:13:12;5.00;;;3.47;;
22697;SDS011;11516;51.612;7.510;2023-06-14T00:15:37;5.70;;;3.40;;
22697;SDS011;11516;51.612;7.510;2023-06-14T00:18:03;6.77;;;3.40;;
22697;SDS011;11516;51.612;7.510;2023-06-14T00:20:30;5.22;;;3.53;;
22697;SDS011;11516;51.612;7.510;2023-06-14T00:22:58;5.13;;;3.50;;
22697;SDS011;11516;51.612;7.510;2023-06-14T00:25:24;4.68;;;3.22;;
22697;SDS011;11516;51.612;7.510;2023-06-14T00:27:50;7.90;;;3.13;;
22697;SDS011;11516;51.612;7.510;2023-06-14T00:30:16;4.05;;;3.05;;
22697;SDS011;11516;51.612;7.510;2023-06-14T00:32:42;4.80;;;3.15;;
22697;SDS011;11516;51.612;7.510;2023-06-14T00:35:08;3.57;;;3.10;;
22697;SDS011;11516;51.612;7.510;2023-06-14T00:37:34;6.55;;;3.63;;
22697;SDS011;11516;51.612;7.510;2023-06-14T00:40:00;6.20;;;3.60;;
22697;SDS011;11516;51.612;7.510;2023-06-14T00:42:26;5.30;;;3.60;;
22697;SDS011;11516;51.612;7.510;2023-06-14T00:44:52;5.33;;;3.17;;
22697;SDS011;11516;51.612;7.510;2023-06-14T00:47:18;4.40;;;3.35;;
22697;SDS011;11516;51.612;7.510;2023-06-14T00:49:48;3.45;;;3.15;;
22697;SDS011;11516;51.612;7.510;2023-06-14T00:52:16;5.22;;;3.15;;
22697;SDS011;11516;51.612;7.510;2023-06-14T00:54:42;5.07;;;3.17;;
22697;SDS011;11516;51.612;7.510;2023-06-14T00:57:11;5.18;;;3.22;;
22697;SDS011;11516;51.612;7.510;2023-06-14T00:59:38;4.20;;;3.40;;
22697;SDS011;11516;51.612;7.510;2023-06-14T01:02:10;5.53;;;3.58;;
22697;SDS011;11516;51.612;7.510;2023-06-14T01:04:36;4.68;;;3.20;;
22697;SDS011;11516;51.612;7.510;2023-06-14T01:12:53;6.30;;;3.00;;
22697;SDS011;11516;51.612;7.510;2023-06-14T01:15:32;7.20;;;3.10;;
22697;SDS011;11516;51.612;7.510;2023-06-14T01:17:59;4.68;;;3.00;;
22697;SDS011;11516;51.612;7.510;2023-06-14T01:20:28;5.50;;;3.00;;
22697;SDS011;11516;51.612;7.510;2023-06-14T01:22:54;4.10;;;3.00;;
22697;SDS011;11516;51.612;7.510;2023-06-14T01:25:20;5.13;;;3.20;;
22697;SDS011;11516;51.612;7.510;2023-06-14T01:27:55;3.65;;;2.75;;
22697;SDS011;11516;51.612;7.510;2023-06-14T01:30:25;4.40;;;3.13;;
22697;SDS011;11516;51.612;7.510;2023-06-14T01:32:53;5.20;;;3.07;;
22697;SDS011;11516;51.612;7.510;2023-06-14T01:35:20;4.90;;;2.88;;
22697;SDS011;11516;51.612;7.510;2023-06-14T01:37:47;3.83;;;3.00;;
22697;SDS011;11516;51.612;7.510;2023-06-14T01:40:13;3.97;;;3.07;;
22697;SDS011;11516;51.612;7.510;2023-06-14T01:42:40;5.40;;;3.28;;
22697;SDS011;11516;51.612;7.510;2023-06-14T01:45:06;5.13;;;3.13;;
22697;SDS011;11516;51.612;7.510;2023-06-14T01:47:34;4.40;;;2.90;;
22697;SDS011;11516;51.612;7.510;2023-06-14T01:50:01;4.40;;;2.90;;
22697;SDS011;11516;51.612;7.510;2023-06-14T01:52:27;5.55;;;3.22;;
22697;SDS011;11516;51.612;7.510;2023-06-14T01:54:53;4.97;;;2.90;;
22697;SDS011;11516;51.612;7.510;2023-06-14T01:57:18;4.43;;;2.80;;
22697;SDS011;11516;51.612;7.510;2023-06-14T01:59:45;5.32;;;3.20;;
22697;SDS011;11516;51.612;7.510;2023-06-14T02:02:13;4.80;;;3.10;;
22697;SDS011;11516;51.612;7.510;2023-06-14T02:04:40;5.15;;;3.20;;
22697;SDS011;11516;51.612;7.510;2023-06-14T02:07:06;5.10;;;3.17;;
22697;SDS011;11516;51.612;7.510;2023-06-14T02:09:31;4.43;;;3.30;;
22697;SDS011;11516;51.612;7.510;2023-06-14T02:11:57;4.75;;;3.05;;
22697;SDS011;11516;51.612;7.510;2023-06-14T02:14:22;5.55;;;3.00;;
22697;SDS011;11516;51.612;7.510;2023-06-14T02:16:48;4.88;;;2.92;;
22697;SDS011;11516;51.612;7.510;2023-06-14T02:19:17;6.03;;;3.45;;
22697;SDS011;11516;51.612;7.510;2023-06-14T02:21:44;6.65;;;3.05;;
22697;SDS011;11516;51.612;7.510;2023-06-14T02:24:09;5.43;;;2.92;;
22697;SDS011;11516;51.612;7.510;2023-06-14T02:26:35;4.65;;;3.08;;
22697;SDS011;11516;51.612;7.510;2023-06-14T02:29:03;5.72;;;3.00;;
22697;SDS011;11516;51.612;7.510;2023-06-14T02:31:33;5.32;;;2.97;;
22697;SDS011;11516;51.612;7.510;2023-06-14T02:33:59;5.57;;;3.20;;
22697;SDS011;11516;51.612;7.510;2023-06-14T02:36:25;3.40;;;2.60;;
22697;SDS011;11516;51.612;7.510;2023-06-14T02:38:51;5.07;;;3.10;;
22697;SDS011;11516;51.612;7.510;2023-06-14T02:41:19;3.70;;;3.30;;
22697;SDS011;11516;51.612;7.510;2023-06-14T02:43:44;4.35;;;3.13;;
22697;SDS011;11516;51.612;7.510;2023-06-14T02:46:10;5.63;;;2.83;;
22697;SDS011;11516;51.612;7.510;2023-06-14T02:48:36;5.22;;;3.10;;
22697;SDS011;11516;51.612;7.510;2023-06-14T02:51:01;2.97;;;2.67;;
22697;SDS011;11516;51.612;7.510;2023-06-14T02:53:27;4.23;;;3.00;;
22697;SDS011;11516;51.612;7.510;2023-06-14T02:55:52;4.23;;;3.23;;
22697;SDS011;11516;51.612;7.510;2023-06-14T02:58:20;5.40;;;2.97;;
22697;SDS011;11516;51.612;7.510;2023-06-14T03:00:46;3.60;;;2.95;;
22697;SDS011;11516;51.612;7.510;2023-06-14T03:03:11;4.20;;;2.90;;
22697;SDS011;11516;51.612;7.510;2023-06-14T03:05:43;5.00;;;2.80;;
22697;SDS011;11516;51.612;7.510;2023-06-14T03:08:14;4.70;;;3.00;;
22697;SDS011;11516;51.612;7.510;2023-06-14T03:10:50;2.88;;;2.63;;
22697;SDS011;11516;51.612;7.510;2023-06-14T03:13:16;4.22;;;2.72;;
22697;SDS011;11516;51.612;7.510;2023-06-14T03:15:42;4.88;;;3.17;;
22697;SDS011;11516;51.612;7.510;2023-06-14T03:18:08;4.40;;;2.90;;
22697;SDS011;11516;51.612;7.510;2023-06-14T03:20:34;6.07;;;3.22;;
22697;SDS011;11516;51.612;7.510;2023-06-14T03:23:01;4.85;;;2.95;;
22697;SDS011;11516;51.612;7.510;2023-06-14T03:25:27;4.53;;;3.20;;
22697;SDS011;11516;51.612;7.510;2023-06-14T03:27:54;4.95;;;2.90;;
22697;SDS011;11516;51.612;7.510;2023-06-14T03:30:20;3.45;;;2.70;;
22697;SDS011;11516;51.612;7.510;2023-06-14T03:32:46;4.55;;;2.97;;
22697;SDS011;11516;51.612;7.510;2023-06-14T03:35:11;4.97;;;2.83;;
22697;SDS011;11516;51.612;7.510;2023-06-14T03:37:45;4.18;;;3.13;;
22697;SDS011;11516;51.612;7.510;2023-06-14T03:40:12;5.05;;;2.97;;
22697;SDS011;11516;51.612;7.510;2023-06-14T03:42:38;3.90;;;3.03;;
22697;SDS011;11516;51.612;7.510;2023-06-14T03:45:04;5.50;;;2.95;;
22697;SDS011;11516;51.612;7.510;2023-06-14T03:47:31;4.63;;;2.88;;
22697;SDS011;11516;51.612;7.510;2023-06-14T03:49:56;5.90;;;3.03;;
22697;SDS011;11516;51.612;7.510;2023-06-14T03:52:22;4.70;;;3.10;;
22697;SDS011;11516;51.612;7.510;2023-06-14T03:54:48;4.45;;;2.80;;
22697;SDS011;11516;51.612;7.510;2023-06-14T03:57:14;6.53;;;3.00;;
22697;SDS011;11516;51.612;7.510;2023-06-14T03:59:40;4.45;;;2.83;;
22697;SDS011;11516;51.612;7.510;2023-06-14T04:02:06;6.67;;;3.23;;
22697;SDS011;11516;51.612;7.510;2023-06-14T04:04:34;4.15;;;2.75;;
22697;SDS011;11516;51.612;7.510;2023-06-14T04:07:00;5.60;;;3.00;;
22697;SDS011;11516;51.612;7.510;2023-06-14T04:09:28;4.85;;;2.97;;
22697;SDS011;11516;51.612;7.510;2023-06-14T04:11:54;5.53;;;2.93;;
22697;SDS011;11516;51.612;7.510;2023-06-14T04:14:20;4.63;;;3.20;;
22697;SDS011;11516;51.612;7.510;2023-06-14T04:16:46;6.20;;;3.00;;
22697;SDS011;11516;51.612;7.510;2023-06-14T04:19:12;5.28;;;3.08;;
22697;SDS011;11516;51.612;7.510;2023-06-14T04:21:38;4.28;;;2.90;;
22697;SDS011;11516;51.612;7.510;2023-06-14T04:24:03;4.60;;;3.00;;
22697;SDS011;11516;51.612;7.510;2023-06-14T04:26:29;4.22;;;2.75;;
22697;SDS011;11516;51.612;7.510;2023-06-14T04:28:58;5.43;;;2.90;;
22697;SDS011;11516;51.612;7.510;2023-06-14T04:31:29;4.60;;;3.27;;
22697;SDS011;11516;51.612;7.510;2023-06-14T04:33:58;4.63;;;3.00;;
22697;SDS011;11516;51.612;7.510;2023-06-14T04:36:24;3.85;;;2.80;;
22697;SDS011;11516;51.612;7.510;2023-06-14T04:38:51;5.70;;;2.95;;
22697;SDS011;11516;51.612;7.510;2023-06-14T04:41:19;6.47;;;3.15;;
22697;SDS011;11516;51.612;7.510;2023-06-14T04:43:45;6.88;;;2.90;;
22697;SDS011;11516;51.612;7.510;2023-06-14T04:46:14;3.15;;;2.70;;
22697;SDS011;11516;51.612;7.510;2023-06-14T04:48:40;3.58;;;2.75;;
22697;SDS011;11516;51.612;7.510;2023-06-14T04:51:10;4.40;;;3.03;;
22697;SDS011;11516;51.612;7.510;2023-06-14T04:53:36;4.30;;;2.63;;
22697;SDS011;11516;51.612;7.510;2023-06-14T04:56:02;3.40;;;2.80;;
22697;SDS011;11516;51.612;7.510;2023-06-14T04:58:28;3.10;;;2.60;;
22697;SDS011;11516;51.612;7.510;2023-06-14T05:00:54;4.70;;;2.93;;
22697;SDS011;11516;51.612;7.510;2023-06-14T05:03:24;5.40;;;2.80;;
22697;SDS011;11516;51.612;7.510;2023-06-14T05:05:50;4.55;;;2.60;;
22697;SDS011;11516;51.612;7.510;2023-06-14T05:08:18;4.50;;;2.80;;
22697;SDS011;11516;51.612;7.510;2023-06-14T05:10:43;3.95;;;3.03;;
22697;SDS011;11516;51.612;7.510;2023-06-14T05:13:09;3.15;;;2.60;;
22697;SDS011;11516;51.612;7.510;2023-06-14T05:15:35;4.67;;;3.00;;
22697;SDS011;11516;51.612;7.510;2023-06-14T05:18:01;3.50;;;2.70;;
22697;SDS011;11516;51.612;7.510;2023-06-14T05:20:27;4.75;;;2.90;;
22697;SDS011;11516;51.612;7.510;2023-06-14T05:22:53;4.95;;;2.80;;
22697;SDS011;11516;51.612;7.510;2023-06-14T05:25:19;7.33;;;2.73;;
22697;SDS011;11516;51.612;7.510;2023-06-14T05:27:45;5.30;;;2.83;;
22697;SDS011;11516;51.612;7.510;2023-06-14T05:30:12;4.63;;;2.88;;
22697;SDS011;11516;51.612;7.510;2023-06-14T05:32:38;4.57;;;2.70;;
22697;SDS011;11516;51.612;7.510;2023-06-14T05:35:04;4.93;;;2.80;;
22697;SDS011;11516;51.612;7.510;2023-06-14T05:37:30;3.90;;;3.05;;
22697;SDS011;11516;51.612;7.510;2023-06-14T05:39:56;5.93;;;2.60;;
22697;SDS011;11516;51.612;7.510;2023-06-14T05:42:22;5.33;;;2.83;;
22697;SDS011;11516;51.612;7.510;2023-06-14T05:44:47;6.20;;;2.63;;
22697;SDS011;11516;51.612;7.510;2023-06-14T05:47:13;6.03;;;2.90;;
22697;SDS011;11516;51.612;7.510;2023-06-14T05:49:38;6.90;;;3.17;;
22697;SDS011;11516;51.612;7.510;2023-06-14T05:52:04;4.90;;;2.80;;
22697;SDS011;11516;51.612;7.510;2023-06-14T05:54:30;4.70;;;2.90;;
22697;SDS011;11516;51.612;7.510;2023-06-14T05:56:55;5.53;;;3.08;;
22697;SDS011;11516;51.612;7.510;2023-06-14T05:59:26;5.63;;;2.60;;
22697;SDS011;11516;51.612;7.510;2023-06-14T06:01:54;5.25;;;3.03;;
22697;SDS011;11516;51.612;7.510;2023-06-14T06:04:23;4.63;;;2.72;;
22697;SDS011;11516;51.612;7.510;2023-06-14T06:06:48;4.35;;;2.60;;
22697;SDS011;11516;51.612;7.510;2023-06-14T06:09:15;7.93;;;3.00;;
22697;SDS011;11516;51.612;7.510;2023-06-14T06:11:41;8.10;;;2.90;;
22697;SDS011;11516;51.612;7.510;2023-06-14T06:14:06;3.30;;;2.77;;
22697;SDS011;11516;51.612;7.510;2023-06-14T06:16:32;5.10;;;2.60;;
22697;SDS011;11516;51.612;7.510;2023-06-14T06:18:58;6.72;;;2.90;;
22697;SDS011;11516;51.612;7.510;2023-06-14T06:21:24;5.22;;;3.00;;
22697;SDS011;11516;51.612;7.510;2023-06-14T06:23:50;6.77;;;2.60;;
22697;SDS011;11516;51.612;7.510;2023-06-14T06:26:15;7.10;;;2.83;;
22697;SDS011;11516;51.612;7.510;2023-06-14T06:28:41;7.10;;;2.60;;
22697;SDS011;11516;51.612;7.510;2023-06-14T06:31:06;6.27;;;3.23;;
22697;SDS011;11516;51.612;7.510;2023-06-14T06:33:32;5.63;;;3.27;;
22697;SDS011;11516;51.612;7.510;2023-06-14T06:35:57;5.87;;;2.73;;
22697;SDS011;11516;51.612;7.510;2023-06-14T06:38:23;4.90;;;2.70;;
22697;SDS011;11516;51.612;7.510;2023-06-14T06:40:50;6.53;;;2.80;;
22697;SDS011;11516;51.612;7.510;2023-06-14T06:43:15;6.85;;;2.67;;
22697;SDS011;11516;51.612;7.510;2023-06-14T06:45:42;4.38;;;2.50;;
22697;SDS011;11516;51.612;7.510;2023-06-14T06:48:08;3.97;;;2.70;;
22697;SDS011;11516;51.612;7.510;2023-06-14T06:50:36;4.97;;;2.70;;
22697;SDS011;11516;51.612;7.510;2023-06-14T06:53:02;3.73;;;2.67;;
22697;SDS011;11516;51.612;7.510;2023-06-14T06:55:28;5.87;;;3.10;;
22697;SDS011;11516;51.612;7.510;2023-06-14T06:57:53;5.77;;;2.80;;
22697;SDS011;11516;51.612;7.510;2023-06-14T07:00:19;4.55;;;2.50;;
22697;SDS011;11516;51.612;7.510;2023-06-14T07:02:46;4.75;;;2.60;;
22697;SDS011;11516;51.612;7.510;2023-06-14T07:05:11;5.50;;;2.60;;
22697;SDS011;11516;51.612;7.510;2023-06-14T07:07:37;4.93;;;2.50;;
22697;SDS011;11516;51.612;7.510;2023-06-14T07:10:03;4.22;;;2.78;;
22697;SDS011;11516;51.612;7.510;2023-06-14T07:12:30;6.65;;;2.50;;
22697;SDS011;11516;51.612;7.510;2023-06-14T07:14:58;5.63;;;2.72;;
22697;SDS011;11516;51.612;7.510;2023-06-14T07:17:24;4.82;;;3.00;;
22697;SDS011;11516;51.612;7.510;2023-06-14T07:19:50;6.55;;;2.63;;
22697;SDS011;11516;51.612;7.510;2023-06-14T07:22:16;3.80;;;2.20;;
22697;SDS011;11516;51.612;7.510;2023-06-14T07:24:42;5.68;;;2.63;;
22697;SDS011;11516;51.612;7.510;2023-06-14T07:27:08;4.23;;;2.70;;
22697;SDS011;11516;51.612;7.510;2023-06-14T07:29:33;4.40;;;2.70;;
22697;SDS011;11516;51.612;7.510;2023-06-14T07:31:59;4.67;;;2.50;;
22697;SDS011;11516;51.612;7.510;2023-06-14T07:34:25;6.57;;;2.63;;
22697;SDS011;11516;51.612;7.510;2023-06-14T07:36:51;2.80;;;2.53;;
22697;SDS011;11516;51.612;7.510;2023-06-14T07:39:16;6.97;;;2.60;;
22697;SDS011;11516;51.612;7.510;2023-06-14T07:41:42;3.43;;;2.00;;
22697;SDS011;11516;51.612;7.510;2023-06-14T07:44:07;3.33;;;2.17;;
22697;SDS011;11516;51.612;7.510;2023-06-14T07:46:33;2.33;;;1.80;;
22697;SDS011;11516;51.612;7.510;2023-06-14T07:48:59;1.98;;;1.73;;
22697;SDS011;11516;51.612;7.510;2023-06-14T07:51:25;5.23;;;2.37;;
22697;SDS011;11516;51.612;7.510;2023-06-14T07:53:51;3.23;;;1.97;;
22697;SDS011;11516;51.612;7.510;2023-06-14T07:56:16;2.50;;;1.87;;
22697;SDS011;11516;51.612;7.510;2023-06-14T07:58:42;2.87;;;1.90;;
22697;SDS011;11516;51.612;7.510;2023-06-14T08:01:08;2.13;;;1.93;;
22697;SDS011;11516;51.612;7.510;2023-06-14T08:03:34;6.28;;;3.45;;
22697;SDS011;11516;51.612;7.510;2023-06-14T08:05:59;4.20;;;1.90;;
22697;SDS011;11516;51.612;7.510;2023-06-14T08:08:26;3.50;;;1.50;;
22697;SDS011;11516;51.612;7.510;2023-06-14T08:10:51;3.33;;;1.80;;
22697;SDS011;11516;51.612;7.510;2023-06-14T08:13:17;3.33;;;1.80;;
22697;SDS011;11516;51.612;7.510;2023-06-14T08:15:43;4.75;;;2.33;;
22697;SDS011;11516;51.612;7.510;2023-06-14T08:18:09;3.05;;;1.80;;
22697;SDS011;11516;51.612;7.510;2023-06-14T08:20:34;3.70;;;1.63;;
22697;SDS011;11516;51.612;7.510;2023-06-14T08:23:00;3.67;;;1.80;;
22697;SDS011;11516;51.612;7.510;2023-06-14T08:25:28;1.50;;;1.30;;
22697;SDS011;11516;51.612;7.510;2023-06-14T08:27:54;2.15;;;1.60;;
22697;SDS011;11516;51.612;7.510;2023-06-14T08:30:20;3.53;;;1.55;;
22697;SDS011;11516;51.612;7.510;2023-06-14T08:32:46;4.23;;;1.60;;
22697;SDS011;11516;51.612;7.510;2023-06-14T08:35:12;5.27;;;1.90;;
22697;SDS011;11516;51.612;7.510;2023-06-14T08:37:40;4.93;;;2.80;;
22697;SDS011;11516;51.612;7.510;2023-06-14T08:40:16;5.50;;;3.60;;
22697;SDS011;11516;51.612;7.510;2023-06-14T08:42:46;4.93;;;3.27;;
22697;SDS011;11516;51.612;7.510;2023-06-14T08:45:13;1.40;;;1.10;;
22697;SDS011;11516;51.612;7.510;2023-06-14T08:47:38;2.13;;;1.67;;
22697;SDS011;11516;51.612;7.510;2023-06-14T08:50:05;1.42;;;1.20;;
22697;SDS011;11516;51.612;7.510;2023-06-14T08:52:33;1.55;;;1.20;;
22697;SDS011;11516;51.612;7.510;2023-06-14T08:55:06;4.60;;;1.35;;
22697;SDS011;11516;51.612;7.510;2023-06-14T08:57:33;1.27;;;1.15;;
22697;SDS011;11516;51.612;7.510;2023-06-14T09:00:02;1.30;;;1.10;;
22697;SDS011;11516;51.612;7.510;2023-06-14T09:02:36;3.50;;;1.00;;
22697;SDS011;11516;51.612;7.510;2023-06-14T09:05:03;2.15;;;1.10;;
22697;SDS011;11516;51.612;7.510;2023-06-14T09:07:28;1.40;;;1.10;;
22697;SDS011;11516;51.612;7.510;2023-06-14T09:10:07;3.95;;;1.40;;
22697;SDS011;11516;51.612;7.510;2023-06-14T09:12:37;3.97;;;1.08;;
22697;SDS011;11516;51.612;7.510;2023-06-14T09:15:06;2.97;;;1.00;;
22697;SDS011;11516;51.612;7.510;2023-06-14T09:17:33;2.63;;;1.50;;
22697;SDS011;11516;51.612;7.510;2023-06-14T09:20:02;3.50;;;1.13;;
22697;SDS011;11516;51.612;7.510;2023-06-14T09:22:34;2.95;;;1.38;;
22697;SDS011;11516;51.612;7.510;2023-06-14T09:25:00;3.90;;;1.40;;
22697;SDS011;11516;51.612;7.510;2023-06-14T09:27:26;4.72;;;1.40;;
22697;SDS011;11516;51.612;7.510;2023-06-14T09:29:53;2.50;;;1.20;;
22697;SDS011;11516;51.612;7.510;2023-06-14T09:32:19;1.85;;;1.23;;
22697;SDS011;11516;51.612;7.510;2023-06-14T09:34:46;3.95;;;1.48;;
22697;SDS011;11516;51.612;7.510;2023-06-14T09:37:12;4.80;;;1.20;;
22697;SDS011;11516;51.612;7.510;2023-06-14T09:39:50;3.60;;;1.40;;
22697;SDS011;11516;51.612;7.510;2023-06-14T09:42:16;3.38;;;1.42;;
22697;SDS011;11516;51.612;7.510;2023-06-14T09:44:48;4.53;;;1.17;;
22697;SDS011;11516;51.612;7.510;2023-06-14T09:47:14;4.60;;;1.40;;
22697;SDS011;11516;51.612;7.510;2023-06-14T09:49:40;1.97;;;1.50;;
22697;SDS011;11516;51.612;7.510;2023-06-14T09:52:07;1.83;;;1.10;;
22697;SDS011;11516;51.612;7.510;2023-06-14T09:54:38;4.75;;;1.48;;
22697;SDS011;11516;51.612;7.510;2023-06-14T09:57:11;2.15;;;1.23;;
22697;SDS011;11516;51.612;7.510;2023-06-14T09:59:42;1.80;;;1.30;;
22697;SDS011;11516;51.612;7.510;2023-06-14T10:02:31;2.50;;;1.13;;
22697;SDS011;11516;51.612;7.510;2023-06-14T10:05:02;2.25;;;1.00;;
22697;SDS011;11516;51.612;7.510;2023-06-14T10:07:30;1.88;;;1.30;;
22697;SDS011;11516;51.612;7.510;2023-06-14T10:10:02;4.10;;;1.27;;
22697;SDS011;11516;51.612;7.510;2023-06-14T10:12:28;2.17;;;1.10;;
22697;SDS011;11516;51.612;7.510;2023-06-14T10:14:53;4.67;;;1.80;;
22697;SDS011;11516;51.612;7.510;2023-06-14T10:17:25;2.33;;;1.27;;
22697;SDS011;11516;51.612;7.510;2023-06-14T10:20:05;5.17;;;1.60;;
22697;SDS011;11516;51.612;7.510;2023-06-14T10:22:50;2.40;;;1.50;;
22697;SDS011;11516;51.612;7.510;2023-06-14T10:25:26;3.25;;;1.40;;
22697;SDS011;11516;51.612;7.510;2023-06-14T10:28:01;3.17;;;1.58;;
22697;SDS011;11516;51.612;7.510;2023-06-14T10:31:01;5.15;;;1.60;;
22697;SDS011;11516;51.612;7.510;2023-06-14T10:33:29;1.70;;;1.42;;
22697;SDS011;11516;51.612;7.510;2023-06-14T10:39:00;1.60;;;1.30;;
22697;SDS011;11516;51.612;7.510;2023-06-14T10:41:39;1.40;;;1.30;;
22697;SDS011;11516;51.612;7.510;2023-06-14T10:46:40;1.98;;;1.50;;
22697;SDS011;11516;51.612;7.510;2023-06-14T10:49:11;1.90;;;1.40;;
22697;SDS011;11516;51.612;7.510;2023-06-14T10:51:41;1.90;;;1.40;;
22697;SDS011;11516;51.612;7.510;2023-06-14T10:54:11;2.55;;;1.80;;
22697;SDS011;11516;51.612;7.510;2023-06-14T10:56:38;2.60;;;1.70;;
22697;SDS011;11516;51.612;7.510;2023-06-14T10:59:14;2.83;;;1.83;;
22697;SDS011;11516;51.612;7.510;2023-06-14T11:02:04;3.22;;;1.80;;
22697;SDS011;11516;51.612;7.510;2023-06-14T11:04:50;2.55;;;1.75;;
22697;SDS011;11516;51.612;7.510;2023-06-14T11:10:25;2.30;;;1.70;;
22697;SDS011;11516;51.612;7.510;2023-06-14T11:12:57;3.55;;;1.67;;
22697;SDS011;11516;51.612;7.510;2023-06-14T11:15:28;3.22;;;1.60;;
22697;SDS011;11516;51.612;7.510;2023-06-14T11:17:54;2.95;;;1.60;;
22697;SDS011;11516;51.612;7.510;2023-06-14T11:20:23;2.63;;;1.60;;
22697;SDS011;11516;51.612;7.510;2023-06-14T11:22:50;3.15;;;1.77;;
22697;SDS011;11516;51.612;7.510;2023-06-14T11:25:16;3.20;;;1.63;;
22697;SDS011;11516;51.612;7.510;2023-06-14T11:27:42;2.20;;;1.60;;
22697;SDS011;11516;51.612;7.510;2023-06-14T11:30:09;2.17;;;1.85;;
22697;SDS011;11516;51.612;7.510;2023-06-14T11:32:35;3.47;;;1.77;;
22697;SDS011;11516;51.612;7.510;2023-06-14T11:35:02;3.40;;;1.80;;
22697;SDS011;11516;51.612;7.510;2023-06-14T11:37:29;4.70;;;1.80;;
22697;SDS011;11516;51.612;7.510;2023-06-14T11:39:58;3.03;;;1.90;;
22697;SDS011;11516;51.612;7.510;2023-06-14T11:42:27;4.72;;;2.20;;
22697;SDS011;11516;51.612;7.510;2023-06-14T11:44:54;3.88;;;1.80;;
22697;SDS011;11516;51.612;7.510;2023-06-14T11:47:22;4.00;;;2.00;;
22697;SDS011;11516;51.612;7.510;2023-06-14T11:49:48;2.80;;;1.80;;
22697;SDS011;11516;51.612;7.510;2023-06-14T11:52:14;1.80;;;1.70;;
22697;SDS011;11516;51.612;7.510;2023-06-14T11:54:39;6.20;;;2.63;;
22697;SDS011;11516;51.612;7.510;2023-06-14T11:57:08;7.40;;;2.97;;
22697;SDS011;11516;51.612;7.510;2023-06-14T11:59:38;3.40;;;2.00;;
22697;SDS011;11516;51.612;7.510;2023-06-14T12:02:05;2.45;;;1.83;;
22697;SDS011;11516;51.612;7.510;2023-06-14T12:04:32;2.05;;;1.58;;
22697;SDS011;11516;51.612;7.510;2023-06-14T12:07:08;3.72;;;2.22;;
22697;SDS011;11516;51.612;7.510;2023-06-14T12:09:36;3.30;;;2.03;;
22697;SDS011;11516;51.612;7.510;2023-06-14T12:12:02;3.37;;;1.77;;
22697;SDS011;11516;51.612;7.510;2023-06-14T12:14:29;3.33;;;2.00;;
22697;SDS011;11516;51.612;7.510;2023-06-14T12:17:03;2.53;;;1.77;;
22697;SDS011;11516;51.612;7.510;2023-06-14T12:19:31;2.95;;;1.95;;
22697;SDS011;11516;51.612;7.510;2023-06-14T12:21:57;5.00;;;1.80;;
22697;SDS011;11516;51.612;7.510;2023-06-14T12:24:29;5.53;;;2.00;;
22697;SDS011;11516;51.612;7.510;2023-06-14T12:26:56;3.90;;;2.00;;
22697;SDS011;11516;51.612;7.510;2023-06-14T12:29:24;1.70;;;1.60;;
22697;SDS011;11516;51.612;7.510;2023-06-14T12:31:50;5.57;;;1.80;;
22697;SDS011;11516;51.612;7.510;2023-06-14T12:34:16;5.70;;;2.50;;
22697;SDS011;11516;51.612;7.510;2023-06-14T12:36:41;2.17;;;1.97;;
22697;SDS011;11516;51.612;7.510;2023-06-14T12:39:09;5.32;;;2.30;;
22697;SDS011;11516;51.612;7.510;2023-06-14T12:41:35;2.83;;;2.20;;
22697;SDS011;11516;51.612;7.510;2023-06-14T12:44:06;3.75;;;2.17;;
22697;SDS011;11516;51.612;7.510;2023-06-14T12:46:32;7.10;;;2.57;;
22697;SDS011;11516;51.612;7.510;2023-06-14T12:48:58;4.10;;;1.95;;
22697;SDS011;11516;51.612;7.510;2023-06-14T12:51:24;3.90;;;2.20;;
22697;SDS011;11516;51.612;7.510;2023-06-14T12:53:50;2.47;;;1.90;;
22697;SDS011;11516;51.612;7.510;2023-06-14T12:56:16;4.20;;;2.30;;
22697;SDS011;11516;51.612;7.510;2023-06-14T12:58:41;2.87;;;1.87;;
22697;SDS011;11516;51.612;7.510;2023-06-14T13:01:07;3.40;;;2.00;;
22697;SDS011;11516;51.612;7.510;2023-06-14T13:03:33;4.37;;;2.30;;
22697;SDS011;11516;51.612;7.510;2023-06-14T13:05:59;4.07;;;2.10;;
22697;SDS011;11516;51.612;7.510;2023-06-14T13:08:26;2.10;;;1.90;;
22697;SDS011;11516;51.612;7.510;2023-06-14T13:10:52;4.68;;;2.10;;
22697;SDS011;11516;51.612;7.510;2023-06-14T13:13:18;2.90;;;1.92;;
22697;SDS011;11516;51.612;7.510;2023-06-14T13:15:44;4.35;;;2.10;;
22697;SDS011;11516;51.612;7.510;2023-06-14T13:18:10;2.70;;;2.00;;
22697;SDS011;11516;51.612;7.510;2023-06-14T13:20:38;5.72;;;2.13;;
22697;SDS011;11516;51.612;7.510;2023-06-14T13:23:03;3.45;;;2.05;;
22697;SDS011;11516;51.612;7.510;2023-06-14T13:25:32;2.45;;;2.00;;
22697;SDS011;11516;51.612;7.510;2023-06-14T13:28:01;4.43;;;2.17;;
22697;SDS011;11516;51.612;7.510;2023-06-14T13:30:28;3.05;;;1.98;;
22697;SDS011;11516;51.612;7.510;2023-06-14T13:32:55;3.50;;;2.00;;
22697;SDS011;11516;51.612;7.510;2023-06-14T13:35:21;5.47;;;2.50;;
22697;SDS011;11516;51.612;7.510;2023-06-14T13:37:47;3.47;;;2.30;;
22697;SDS011;11516;51.612;7.510;2023-06-14T13:40:12;3.93;;;2.27;;
22697;SDS011;11516;51.612;7.510;2023-06-14T13:42:38;3.03;;;2.10;;
22697;SDS011;11516;51.612;7.510;2023-06-14T13:45:04;4.75;;;3.17;;
22697;SDS011;11516;51.612;7.510;2023-06-14T13:47:31;2.78;;;2.10;;
22697;SDS011;11516;51.612;7.510;2023-06-14T13:49:57;7.10;;;3.63;;
22697;SDS011;11516;51.612;7.510;2023-06-14T13:52:23;5.67;;;2.37;;
22697;SDS011;11516;51.612;7.510;2023-06-14T13:54:49;3.07;;;2.20;;
22697;SDS011;11516;51.612;7.510;2023-06-14T13:57:15;3.03;;;2.13;;
22697;SDS011;11516;51.612;7.510;2023-06-14T13:59:41;4.50;;;2.33;;
22697;SDS011;11516;51.612;7.510;2023-06-14T14:02:09;5.93;;;2.10;;
22697;SDS011;11516;51.612;7.510;2023-06-14T14:04:35;4.95;;;1.98;;
22697;SDS011;11516;51.612;7.510;2023-06-14T14:07:01;4.53;;;2.20;;
22697;SDS011;11516;51.612;7.510;2023-06-14T14:09:28;3.03;;;1.95;;
22697;SDS011;11516;51.612;7.510;2023-06-14T14:11:53;2.33;;;1.80;;
22697;SDS011;11516;51.612;7.510;2023-06-14T14:14:19;2.13;;;1.93;;
22697;SDS011;11516;51.612;7.510;2023-06-14T14:16:45;4.00;;;1.95;;
22697;SDS011;11516;51.612;7.510;2023-06-14T14:19:11;2.10;;;1.90;;
22697;SDS011;11516;51.612;7.510;2023-06-14T14:21:36;3.28;;;2.10;;
22697;SDS011;11516;51.612;7.510;2023-06-14T14:24:02;3.25;;;2.10;;
22697;SDS011;11516;51.612;7.510;2023-06-14T14:26:28;3.50;;;2.00;;
22697;SDS011;11516;51.612;7.510;2023-06-14T14:28:54;2.43;;;1.90;;
22697;SDS011;11516;51.612;7.510;2023-06-14T14:31:19;2.22;;;1.90;;
22697;SDS011;11516;51.612;7.510;2023-06-14T14:33:45;3.10;;;2.10;;
22697;SDS011;11516;51.612;7.510;2023-06-14T14:36:11;5.00;;;2.00;;
22697;SDS011;11516;51.612;7.510;2023-06-14T14:41:23;2.20;;;1.73;;
22697;SDS011;11516;51.612;7.510;2023-06-14T14:43:49;3.87;;;1.90;;
22697;SDS011;11516;51.612;7.510;2023-06-14T14:46:15;2.93;;;2.40;;
22697;SDS011;11516;51.612;7.510;2023-06-14T14:48:41;3.85;;;2.00;;
22697;SDS011;11516;51.612;7.510;2023-06-14T14:51:07;3.97;;;1.90;;
22697;SDS011;11516;51.612;7.510;2023-06-14T14:53:32;2.83;;;1.90;;
22697;SDS011;11516;51.612;7.510;2023-06-14T14:55:58;2.20;;;2.00;;
22697;SDS011;11516;51.612;7.510;2023-06-14T14:58:25;2.25;;;1.90;;
22697;SDS011;11516;51.612;7.510;2023-06-14T15:00:51;2.30;;;2.00;;
22697;SDS011;11516;51.612;7.510;2023-06-14T15:03:17;4.17;;;2.00;;
22697;SDS011;11516;51.612;7.510;2023-06-14T15:05:43;2.27;;;2.07;;